createdAt,value
2018-11-03T00:00:25.934Z,99.99
2018-11-03T00:01:25.957Z,99.99
2018-11-03T00:02:25.980Z,99.99
2018-11-03T00:03:26.006Z,99.99
2018-11-03T00:04:26.029Z,99.99
2018-11-03T00:05:26.051Z,99.99
2018-11-03T00:06:26.074Z,99.99
2018-11-03T00:07:26.102Z,99.99
2018-11-03T00:08:26.121Z,99.99
2018-11-03T00:09:26.147Z,99.99
2018-11-03T00:10:26.168Z,99.99
2018-11-03T00:11:26.191Z,99.99
2018-11-03T00:12:26.215Z,99.99
2018-11-03T00:13:26.237Z,99.99
2018-11-03T00:14:26.260Z,99.99
2018-11-03T00:15:26.284Z,99.99
2018-11-03T00:16:26.308Z,99.99
2018-11-03T00:17:26.330Z,99.99
2018-11-03T00:18:26.357Z,99.99
2018-11-03T00:19:26.377Z,99.99
2018-11-03T00:20:26.401Z,99.99
2018-11-03T00:21:26.423Z,99.99
2018-11-03T00:22:26.446Z,99.99
2018-11-03T00:23:26.469Z,99.99
2018-11-03T00:24:26.495Z,99.99
2018-11-03T00:25:26.516Z,99.99
2018-11-03T00:26:26.540Z,99.99
2018-11-03T00:27:26.565Z,99.99
2018-11-03T00:28:26.599Z,99.99
2018-11-03T00:29:26.609Z,99.99
2018-11-03T00:30:26.631Z,99.99
2018-11-03T00:31:26.654Z,99.99
2018-11-03T00:32:26.678Z,99.99
2018-11-03T00:33:26.700Z,99.99
2018-11-03T00:34:26.723Z,99.99
2018-11-03T00:35:26.747Z,99.99
2018-11-03T00:36:26.771Z,99.99
2018-11-03T00:37:26.793Z,99.99
2018-11-03T00:38:26.819Z,99.99
2018-11-03T00:39:26.842Z,99.99
2018-11-03T00:40:26.883Z,99.99
2018-11-03T00:41:26.887Z,99.99
2018-11-03T00:42:26.909Z,99.99
2018-11-03T00:43:26.933Z,99.99
2018-11-03T00:44:26.956Z,99.99
2018-11-03T00:45:26.979Z,99.99
2018-11-03T00:46:27.002Z,99.99
2018-11-03T00:47:27.024Z,99.99
2018-11-03T00:48:27.047Z,99.99
2018-11-03T00:49:27.071Z,99.99
2018-11-03T00:50:27.093Z,99.99
2018-11-03T00:51:27.117Z,99.99
2018-11-03T00:52:27.141Z,99.99
2018-11-03T00:53:27.162Z,99.99
2018-11-03T00:54:27.186Z,99.99
2018-11-03T00:55:27.210Z,99.99
2018-11-03T00:56:27.233Z,99.99
2018-11-03T00:57:27.255Z,99.99
2018-11-03T00:58:27.278Z,99.99
2018-11-03T00:59:27.302Z,99.99
2018-11-03T01:00:27.325Z,99.99
2018-11-03T01:01:27.348Z,99.99
2018-11-03T01:02:27.371Z,99.99
2018-11-03T01:03:27.394Z,99.99
2018-11-03T01:04:27.418Z,99.99
2018-11-03T01:05:27.440Z,99.99
2018-11-03T01:06:27.462Z,99.99
2018-11-03T01:07:27.487Z,99.99
2018-11-03T01:08:27.514Z,99.99
2018-11-03T01:09:27.532Z,99.99
2018-11-03T01:10:27.555Z,99.99
2018-11-03T01:11:27.578Z,99.99
2018-11-03T01:12:27.606Z,99.99
2018-11-03T01:13:27.624Z,99.99
2018-11-03T01:14:27.648Z,99.99
2018-11-03T01:15:27.673Z,99.99
2018-11-03T01:16:27.694Z,99.99
2018-11-03T01:17:27.751Z,99.99
2018-11-03T01:18:27.741Z,99.99
2018-11-03T01:19:27.763Z,99.99
2018-11-03T01:20:27.786Z,99.99
2018-11-03T01:21:27.809Z,99.99
2018-11-03T01:22:27.832Z,99.99
2018-11-03T01:23:27.956Z,99.99
2018-11-03T01:24:27.879Z,99.99
2018-11-03T01:25:27.901Z,99.99
2018-11-03T01:26:27.925Z,99.99
2018-11-03T01:27:27.948Z,99.99
2018-11-03T01:28:27.971Z,99.99
2018-11-03T01:29:27.993Z,99.99
2018-11-03T01:30:28.016Z,99.99
2018-11-03T01:31:28.040Z,99.99
2018-11-03T01:32:28.105Z,99.99
2018-11-03T01:33:28.085Z,99.99
2018-11-03T01:34:28.119Z,99.99
2018-11-03T01:35:28.135Z,99.99
2018-11-03T01:36:28.156Z,99.99
2018-11-03T01:37:28.177Z,99.99
2018-11-03T01:38:28.201Z,99.99
2018-11-03T01:39:28.227Z,99.99
2018-11-03T01:40:28.248Z,99.99
2018-11-03T01:41:28.272Z,99.99
2018-11-03T01:42:28.293Z,99.99
2018-11-03T01:43:28.318Z,99.99
2018-11-03T01:44:28.342Z,99.99
2018-11-03T01:45:28.361Z,99.99
2018-11-03T01:46:28.384Z,99.99
2018-11-03T01:47:28.408Z,99.99
2018-11-03T01:48:28.435Z,99.99
2018-11-03T01:49:28.453Z,99.99
2018-11-03T01:50:28.476Z,99.99
2018-11-03T01:51:28.500Z,99.99
2018-11-03T01:52:28.525Z,99.99
2018-11-03T01:53:28.545Z,99.99
2018-11-03T01:54:28.569Z,99.99
2018-11-03T01:55:28.592Z,99.99
2018-11-03T01:56:28.615Z,99.99
2018-11-03T01:57:28.638Z,99.99
2018-11-03T01:58:28.667Z,99.99
2018-11-03T01:59:28.683Z,99.99
2018-11-03T02:00:28.708Z,99.99
2018-11-03T02:01:28.730Z,99.99
2018-11-03T02:02:28.752Z,99.99
2018-11-03T02:03:28.777Z,99.99
2018-11-03T02:04:28.799Z,99.99
2018-11-03T02:05:28.821Z,99.99
2018-11-03T02:06:28.844Z,99.99
2018-11-03T02:07:28.868Z,99.99
2018-11-03T02:08:28.894Z,99.99
2018-11-03T02:09:28.913Z,99.99
2018-11-03T02:10:28.937Z,99.99
2018-11-03T02:11:28.961Z,99.99
2018-11-03T02:12:28.983Z,99.99
2018-11-03T02:13:29.006Z,99.99
2018-11-03T02:14:29.037Z,99.99
2018-11-03T02:15:29.051Z,99.99
2018-11-03T02:16:29.075Z,99.99
2018-11-03T02:17:29.097Z,99.99
2018-11-03T02:18:29.120Z,99.99
2018-11-03T02:19:29.142Z,99.99
2018-11-03T02:20:29.169Z,99.99
2018-11-03T02:21:29.189Z,99.99
2018-11-03T02:22:29.232Z,99.99
2018-11-03T02:23:29.235Z,99.99
2018-11-03T02:24:29.258Z,99.99
2018-11-03T02:25:29.280Z,99.99
2018-11-03T02:26:29.303Z,99.99
2018-11-03T02:27:29.329Z,99.99
2018-11-03T02:28:29.351Z,99.99
2018-11-03T02:29:29.371Z,99.99
2018-11-03T02:30:29.401Z,99.99
2018-11-03T02:31:29.417Z,99.99
2018-11-03T02:32:29.440Z,99.99
2018-11-03T02:33:29.527Z,99.99
2018-11-03T02:34:29.485Z,99.99
2018-11-03T02:35:29.512Z,99.99
2018-11-03T02:36:29.532Z,99.99
2018-11-03T02:37:29.555Z,99.99
2018-11-03T02:38:29.577Z,99.99
2018-11-03T02:39:29.607Z,99.99
2018-11-03T02:40:29.632Z,99.99
2018-11-03T02:41:29.645Z,99.99
2018-11-03T02:42:29.668Z,99.99
2018-11-03T02:43:29.737Z,99.99
2018-11-03T02:44:29.714Z,99.99
2018-11-03T02:45:29.736Z,99.99
2018-11-03T02:46:29.760Z,99.99
2018-11-03T02:47:29.783Z,99.99
2018-11-03T02:48:29.806Z,99.99
2018-11-03T02:49:29.829Z,99.99
2018-11-03T02:50:29.854Z,99.99
2018-11-03T02:51:29.874Z,99.99
2018-11-03T02:52:29.898Z,99.99
2018-11-03T02:53:29.924Z,99.99
2018-11-03T02:54:29.942Z,99.99
2018-11-03T02:55:29.966Z,99.99
2018-11-03T02:56:29.988Z,99.99
2018-11-03T02:57:30.060Z,99.99
2018-11-03T02:58:30.040Z,99.99
2018-11-03T02:59:30.056Z,99.99
2018-11-03T03:00:30.080Z,99.99
2018-11-03T03:01:30.103Z,99.99
2018-11-03T03:02:30.125Z,99.99
2018-11-03T03:03:30.151Z,99.99
2018-11-03T03:04:30.171Z,99.99
2018-11-03T03:05:30.195Z,99.99
2018-11-03T03:06:30.216Z,99.99
2018-11-03T03:07:30.242Z,99.99
2018-11-03T03:08:30.289Z,99.99
2018-11-03T03:09:30.286Z,99.99
2018-11-03T03:10:30.307Z,99.99
2018-11-03T03:11:30.331Z,99.99
2018-11-03T03:12:30.354Z,99.99
2018-11-03T03:13:30.376Z,99.99
2018-11-03T03:14:30.399Z,99.99
2018-11-03T03:15:30.422Z,99.99
2018-11-03T03:16:30.445Z,99.99
2018-11-03T03:17:30.470Z,99.99
2018-11-03T03:18:30.492Z,99.99
2018-11-03T03:19:30.513Z,99.99
2018-11-03T03:20:30.551Z,99.99
2018-11-03T03:21:30.558Z,99.99
2018-11-03T03:22:30.581Z,99.99
2018-11-03T03:23:30.605Z,99.99
2018-11-03T03:24:30.627Z,99.99
2018-11-03T03:25:30.649Z,99.99
2018-11-03T03:26:30.677Z,99.99
2018-11-03T03:27:30.700Z,99.99
2018-11-03T03:28:30.719Z,99.99
2018-11-03T03:29:30.835Z,99.99
2018-11-03T03:30:30.766Z,99.99
2018-11-03T03:31:30.787Z,99.99
2018-11-03T03:32:30.810Z,99.99
2018-11-03T03:33:30.836Z,99.99
2018-11-03T03:34:30.855Z,99.99
2018-11-03T03:35:30.887Z,99.99
2018-11-03T03:36:30.902Z,99.99
2018-11-03T03:37:30.925Z,99.99
2018-11-03T03:38:30.946Z,99.99
2018-11-03T03:39:30.969Z,99.99
2018-11-03T03:40:30.993Z,99.99
2018-11-03T03:41:31.015Z,99.99
2018-11-03T03:42:31.038Z,99.99
2018-11-03T03:43:31.061Z,99.99
2018-11-03T03:44:31.085Z,99.99
2018-11-03T03:45:31.117Z,99.99
2018-11-03T03:46:31.130Z,99.99
2018-11-03T03:47:31.152Z,99.99
2018-11-03T03:48:31.175Z,99.99
2018-11-03T03:49:31.198Z,99.99
2018-11-03T03:50:31.227Z,99.99
2018-11-03T03:51:31.246Z,99.99
2018-11-03T03:52:31.267Z,99.99
2018-11-03T03:53:31.293Z,99.99
2018-11-03T03:54:31.314Z,99.99
2018-11-03T03:55:31.337Z,99.99
2018-11-03T03:56:31.359Z,99.99
2018-11-03T03:57:31.380Z,99.99
2018-11-03T03:58:31.403Z,99.99
2018-11-03T03:59:31.431Z,99.99
2018-11-03T04:00:31.452Z,99.99
2018-11-03T04:01:31.480Z,99.99
2018-11-03T04:02:31.496Z,99.99
2018-11-03T04:03:31.523Z,99.99
2018-11-03T04:04:31.541Z,99.99
2018-11-03T04:05:31.562Z,99.99
2018-11-03T04:06:31.585Z,99.99
2018-11-03T04:07:31.610Z,99.99
2018-11-03T04:08:31.632Z,99.99
2018-11-03T04:09:31.657Z,99.99
2018-11-03T04:10:31.678Z,99.99
2018-11-03T04:11:31.702Z,99.99
2018-11-03T04:12:31.727Z,99.99
2018-11-03T04:13:31.748Z,99.99
2018-11-03T04:14:31.768Z,99.99
2018-11-03T04:15:31.795Z,99.99
2018-11-03T04:16:31.815Z,99.99
2018-11-03T04:17:31.836Z,99.99
2018-11-03T04:18:31.905Z,99.99
2018-11-03T04:19:31.882Z,99.99
2018-11-03T04:20:31.905Z,99.99
2018-11-03T04:21:31.932Z,99.99
2018-11-03T04:22:31.952Z,99.99
2018-11-03T04:23:31.976Z,99.99
2018-11-03T04:24:31.997Z,99.99
2018-11-03T04:25:32.018Z,99.99
2018-11-03T04:26:32.042Z,99.99
2018-11-03T04:27:32.065Z,99.99
2018-11-03T04:28:32.089Z,99.99
2018-11-03T04:29:32.110Z,99.99
2018-11-03T04:30:32.133Z,99.99
2018-11-03T04:31:32.157Z,99.99
2018-11-03T04:32:32.179Z,99.99
2018-11-03T04:33:32.201Z,99.99
2018-11-03T04:34:32.224Z,99.99
2018-11-03T04:35:32.250Z,99.99
2018-11-03T04:36:32.275Z,99.99
2018-11-03T04:37:32.293Z,99.99
2018-11-03T04:38:32.317Z,99.99
2018-11-03T04:39:32.337Z,99.99
2018-11-03T04:40:32.364Z,99.99
2018-11-03T04:41:32.384Z,99.99
2018-11-03T04:42:32.409Z,99.99
2018-11-03T04:43:32.430Z,99.99
2018-11-03T04:44:32.474Z,99.99
2018-11-03T04:45:32.567Z,99.99
2018-11-03T04:46:32.497Z,99.99
2018-11-03T04:47:32.520Z,99.99
2018-11-03T04:48:32.547Z,99.99
2018-11-03T04:49:32.565Z,99.99
2018-11-03T04:50:32.589Z,99.99
2018-11-03T04:51:32.612Z,99.99
2018-11-03T04:52:32.635Z,99.99
2018-11-03T04:53:32.664Z,99.99
2018-11-03T04:54:32.679Z,99.99
2018-11-03T04:55:32.705Z,99.99
2018-11-03T04:56:32.725Z,99.99
2018-11-03T04:57:32.748Z,99.99
2018-11-03T04:58:32.772Z,99.99
2018-11-03T04:59:32.795Z,99.99
2018-11-03T05:00:32.817Z,99.99
2018-11-03T05:01:32.839Z,99.99
2018-11-03T05:02:32.866Z,99.99
2018-11-03T05:03:32.885Z,99.99
2018-11-03T05:04:32.909Z,99.99
2018-11-03T05:05:32.931Z,99.99
2018-11-03T05:06:32.953Z,99.99
2018-11-03T05:07:32.977Z,99.99
2018-11-03T05:08:32.999Z,99.99
2018-11-03T05:09:33.025Z,99.99
2018-11-03T05:10:33.068Z,99.99
2018-11-03T05:11:33.079Z,99.99
2018-11-03T05:12:33.098Z,99.99
2018-11-03T05:13:33.112Z,99.99
2018-11-03T05:14:33.135Z,99.99
2018-11-03T05:15:33.159Z,99.99
2018-11-03T05:16:33.181Z,99.99
2018-11-03T05:17:33.204Z,99.99
2018-11-03T05:18:33.226Z,99.99
2018-11-03T05:19:33.249Z,99.99
2018-11-03T05:20:33.273Z,99.99
2018-11-03T05:21:33.294Z,99.99
2018-11-03T05:22:33.319Z,99.99
2018-11-03T05:23:33.340Z,99.99
2018-11-03T05:24:33.364Z,99.99
2018-11-03T05:25:33.385Z,99.99
2018-11-03T05:26:33.409Z,99.99
2018-11-03T05:27:33.445Z,99.99
2018-11-03T05:28:33.455Z,99.99
2018-11-03T05:29:33.476Z,99.99
2018-11-03T05:30:33.500Z,99.99
2018-11-03T05:31:33.522Z,99.99
2018-11-03T05:32:33.546Z,99.99
2018-11-03T05:33:33.568Z,99.99
2018-11-03T05:34:33.592Z,99.99
2018-11-03T05:35:33.669Z,99.99
2018-11-03T05:36:33.639Z,99.99
2018-11-03T05:37:33.659Z,99.99
2018-11-03T05:38:33.682Z,99.99
2018-11-03T05:39:33.705Z,99.99
2018-11-03T05:40:33.728Z,99.99
2018-11-03T05:41:33.751Z,99.99
2018-11-03T05:42:33.779Z,99.99
2018-11-03T05:43:33.796Z,99.99
2018-11-03T05:44:33.818Z,99.99
2018-11-03T05:45:33.841Z,99.99
2018-11-03T05:46:33.963Z,99.99
2018-11-03T05:47:33.887Z,99.99
2018-11-03T05:48:33.911Z,99.99
2018-11-03T05:49:33.932Z,99.99
2018-11-03T05:50:33.955Z,99.99
2018-11-03T05:51:33.983Z,99.99
2018-11-03T05:52:34.008Z,99.99
2018-11-03T05:53:34.023Z,99.99
2018-11-03T05:54:34.050Z,99.99
2018-11-03T05:55:34.070Z,99.99
2018-11-03T05:56:34.092Z,99.99
2018-11-03T05:57:34.114Z,99.99
2018-11-03T05:58:34.137Z,99.99
2018-11-03T05:59:34.161Z,99.99
2018-11-03T06:00:34.183Z,99.99
2018-11-03T06:01:34.205Z,99.99
2018-11-03T06:02:34.229Z,99.99
2018-11-03T06:03:34.252Z,99.99
2018-11-03T06:04:34.275Z,99.99
2018-11-03T06:05:34.297Z,99.99
2018-11-03T06:06:34.320Z,99.99
2018-11-03T06:07:34.343Z,99.99
2018-11-03T06:08:34.385Z,99.99
2018-11-03T06:09:34.388Z,99.99
2018-11-03T06:10:34.412Z,99.99
2018-11-03T06:11:34.435Z,99.99
2018-11-03T06:12:34.459Z,99.99
2018-11-03T06:13:34.478Z,99.99
2018-11-03T06:14:34.501Z,99.99
2018-11-03T06:15:34.610Z,99.99
2018-11-03T06:16:34.549Z,99.99
2018-11-03T06:17:34.570Z,99.99
2018-11-03T06:18:34.597Z,99.99
2018-11-03T06:19:34.651Z,99.99
2018-11-03T06:20:34.638Z,99.99
2018-11-03T06:21:34.660Z,99.99
2018-11-03T06:22:34.788Z,99.99
2018-11-03T06:23:34.786Z,99.99
2018-11-03T06:24:34.729Z,99.99
2018-11-03T06:25:34.753Z,99.99
2018-11-03T06:26:34.777Z,99.99
2018-11-03T06:27:34.822Z,99.99
2018-11-03T06:28:34.820Z,99.99
2018-11-03T06:29:34.842Z,99.99
2018-11-03T06:30:34.866Z,99.99
2018-11-03T06:31:34.889Z,99.99
2018-11-03T06:32:34.911Z,99.99
2018-11-03T06:33:34.935Z,99.99
2018-11-03T06:34:34.964Z,99.99
2018-11-03T06:35:34.980Z,99.99
2018-11-03T06:36:35.000Z,99.99
2018-11-03T06:37:35.022Z,99.99
2018-11-03T06:38:35.046Z,99.99
2018-11-03T06:39:35.068Z,99.99
2018-11-03T06:40:35.091Z,99.99
2018-11-03T06:41:35.115Z,99.99
2018-11-03T06:42:35.135Z,99.99
2018-11-03T06:43:35.158Z,99.99
2018-11-03T06:44:35.181Z,99.99
2018-11-03T06:45:35.204Z,99.99
2018-11-03T06:46:35.258Z,99.99
2018-11-03T06:47:35.340Z,99.99
2018-11-03T06:48:35.273Z,99.99
2018-11-03T06:49:35.293Z,99.99
2018-11-03T06:50:35.316Z,99.99
2018-11-03T06:51:35.339Z,99.99
2018-11-03T06:52:35.365Z,99.99
2018-11-03T06:53:35.386Z,99.99
2018-11-03T06:54:35.406Z,99.99
2018-11-03T06:55:35.430Z,99.99
2018-11-03T06:56:35.454Z,99.99
2018-11-03T06:57:35.475Z,99.99
2018-11-03T06:58:35.499Z,99.99
2018-11-03T06:59:35.521Z,99.99
2018-11-03T07:00:35.568Z,99.99
2018-11-03T07:01:35.565Z,99.99
2018-11-03T07:02:35.589Z,99.99
2018-11-03T07:03:35.612Z,99.99
2018-11-03T07:04:35.636Z,99.99
2018-11-03T07:05:35.657Z,99.99
2018-11-03T07:06:35.713Z,99.99
2018-11-03T07:07:35.711Z,99.99
2018-11-03T07:08:35.726Z,99.99
2018-11-03T07:09:35.800Z,99.99
2018-11-03T07:10:35.771Z,99.99
2018-11-03T07:11:35.956Z,99.99
2018-11-03T07:12:36.083Z,99.99
2018-11-03T07:13:35.840Z,99.99
2018-11-03T07:14:35.863Z,99.99
2018-11-03T07:15:35.889Z,99.99
2018-11-03T07:16:35.909Z,99.99
2018-11-03T07:17:36.006Z,99.99
2018-11-03T07:18:35.955Z,99.99
2018-11-03T07:19:36.105Z,99.99
2018-11-03T07:20:36.001Z,99.99
2018-11-03T07:21:36.124Z,99.99
2018-11-03T07:22:36.052Z,99.99
2018-11-03T07:23:36.074Z,99.99
2018-11-03T07:24:36.093Z,99.99
2018-11-03T07:25:36.126Z,99.99
2018-11-03T07:26:36.138Z,99.99
2018-11-03T07:27:36.162Z,99.99
2018-11-03T07:28:36.189Z,99.99
2018-11-03T07:29:36.307Z,99.99
2018-11-03T07:30:36.236Z,99.99
2018-11-03T07:31:36.256Z,99.99
2018-11-03T07:32:36.278Z,99.99
2018-11-03T07:33:36.301Z,99.99
2018-11-03T07:34:36.326Z,99.99
2018-11-03T07:35:36.370Z,99.99
2018-11-03T07:36:36.372Z,99.99
2018-11-03T07:37:36.393Z,99.99
2018-11-03T07:38:36.417Z,99.99
2018-11-03T07:39:36.441Z,99.99
2018-11-03T07:40:36.475Z,99.99
2018-11-03T07:41:36.611Z,99.99
2018-11-03T07:42:36.587Z,99.99
2018-11-03T07:43:36.534Z,99.99
2018-11-03T07:44:36.559Z,99.99
2018-11-03T07:45:36.581Z,99.99
2018-11-03T07:46:36.604Z,99.99
2018-11-03T07:47:36.628Z,99.99
2018-11-03T07:48:36.744Z,99.99
2018-11-03T07:49:36.688Z,99.99
2018-11-03T07:50:36.698Z,99.99
2018-11-03T07:51:36.721Z,99.99
2018-11-03T07:52:36.746Z,99.99
2018-11-03T07:53:36.772Z,99.99
2018-11-03T07:54:36.821Z,99.99
2018-11-03T07:55:36.819Z,99.99
2018-11-03T07:56:36.841Z,99.99
2018-11-03T07:57:36.865Z,99.99
2018-11-03T07:58:36.888Z,99.99
2018-11-03T07:59:36.910Z,99.99
2018-11-03T08:00:37.010Z,99.99
2018-11-03T08:01:36.956Z,99.99
2018-11-03T08:02:36.984Z,99.99
2018-11-03T08:03:37.004Z,99.99
2018-11-03T08:04:37.029Z,99.99
2018-11-03T08:05:37.050Z,99.99
2018-11-03T08:06:37.075Z,99.99
2018-11-03T08:07:37.106Z,99.99
2018-11-03T08:08:37.137Z,99.99
2018-11-03T08:09:37.146Z,99.99
2018-11-03T08:10:37.170Z,99.99
2018-11-03T08:11:37.195Z,99.99
2018-11-03T08:12:37.217Z,99.99
2018-11-03T08:13:37.241Z,99.99
2018-11-03T08:14:37.268Z,99.99
2018-11-03T08:15:37.350Z,99.99
2018-11-03T08:16:37.314Z,99.99
2018-11-03T08:17:37.336Z,99.99
2018-11-03T08:18:37.361Z,99.99
2018-11-03T08:19:37.386Z,99.99
2018-11-03T08:20:37.408Z,99.99
2018-11-03T08:21:37.431Z,99.99
2018-11-03T08:22:37.456Z,99.99
2018-11-03T08:23:37.487Z,99.99
2018-11-03T08:24:37.503Z,99.99
2018-11-03T08:25:37.526Z,99.99
2018-11-03T08:26:37.551Z,99.99
2018-11-03T08:27:37.581Z,99.99
2018-11-03T08:28:37.599Z,99.99
2018-11-03T08:29:37.625Z,99.99
2018-11-03T08:30:37.647Z,99.99
2018-11-03T08:31:37.771Z,99.99
2018-11-03T08:32:37.697Z,99.99
2018-11-03T08:33:37.718Z,99.99
2018-11-03T08:34:37.743Z,99.99
2018-11-03T08:35:37.767Z,99.99
2018-11-03T08:36:37.792Z,99.99
2018-11-03T08:37:37.816Z,99.99
2018-11-03T08:38:37.840Z,99.99
2018-11-03T08:39:37.953Z,99.99
2018-11-03T08:40:37.888Z,99.99
2018-11-03T08:41:37.911Z,99.99
2018-11-03T08:42:37.936Z,99.99
2018-11-03T08:43:37.965Z,99.99
2018-11-03T08:44:37.987Z,99.99
2018-11-03T08:45:38.010Z,99.99
2018-11-03T08:46:38.035Z,99.99
2018-11-03T08:47:38.059Z,99.99
2018-11-03T08:48:38.178Z,99.99
2018-11-03T08:49:38.114Z,99.99
2018-11-03T08:50:38.133Z,99.99
2018-11-03T08:51:38.160Z,99.99
2018-11-03T08:52:38.219Z,99.99
2018-11-03T08:53:38.255Z,99.99
2018-11-03T08:54:38.236Z,99.99
2018-11-03T08:55:38.261Z,99.99
2018-11-03T08:56:38.290Z,99.99
2018-11-03T08:57:38.315Z,99.99
2018-11-03T08:58:38.343Z,99.99
2018-11-03T08:59:38.456Z,99.74
2018-11-03T09:00:38.393Z,98.55
2018-11-03T09:01:38.419Z,98.03
2018-11-03T09:02:38.449Z,98.79
2018-11-03T09:03:38.475Z,98.60
2018-11-03T09:04:38.505Z,98.27
2018-11-03T09:05:38.528Z,96.65
2018-11-03T09:06:38.556Z,96.08
2018-11-03T09:07:38.583Z,95.17
2018-11-03T09:08:38.611Z,94.74
2018-11-03T09:09:38.639Z,94.84
2018-11-03T09:10:38.665Z,94.22
2018-11-03T09:11:38.694Z,93.37
2018-11-03T09:12:38.721Z,93.08
2018-11-03T09:13:38.750Z,92.98
2018-11-03T09:14:38.866Z,92.08
2018-11-03T09:15:38.806Z,92.84
2018-11-03T09:16:38.836Z,91.69
2018-11-03T09:17:38.863Z,90.31
2018-11-03T09:18:38.892Z,87.21
2018-11-03T09:19:38.921Z,86.06
2018-11-03T09:20:38.952Z,84.20
2018-11-03T09:21:38.993Z,82.71
2018-11-03T09:22:39.130Z,80.74
2018-11-03T09:23:39.038Z,79.22
2018-11-03T09:24:39.068Z,79.85
2018-11-03T09:26:51.719Z,84.72
2018-11-03T09:27:51.750Z,85.25
2018-11-03T09:28:51.778Z,86.78
2018-11-03T09:29:51.809Z,86.44
2018-11-03T09:30:51.846Z,86.40
2018-11-03T09:31:51.967Z,89.69
2018-11-03T09:32:51.901Z,91.46
2018-11-03T09:33:51.934Z,92.74
2018-11-03T09:34:52.005Z,94.17
2018-11-03T09:35:51.995Z,93.46
2018-11-03T09:36:52.024Z,91.98
2018-11-03T09:37:52.054Z,90.55
2018-11-03T09:38:52.182Z,90.55
2018-11-03T09:39:52.115Z,90.55
2018-11-03T09:40:52.145Z,89.89
2018-11-03T09:41:52.178Z,89.40
2018-11-03T09:42:52.211Z,90.64
2018-11-03T09:43:52.236Z,92.60
2018-11-03T09:44:52.300Z,94.51
2018-11-03T09:45:52.297Z,95.22
2018-11-03T09:46:52.326Z,95.98
2018-11-03T09:47:52.362Z,95.70
2018-11-03T09:48:52.399Z,95.46
2018-11-03T09:49:52.417Z,94.22
2018-11-03T09:50:52.505Z,95.27
2018-11-03T09:51:52.478Z,95.08
2018-11-03T09:52:52.509Z,93.84
2018-11-03T09:53:52.541Z,94.13
2018-11-03T09:54:52.571Z,94.13
2018-11-03T09:55:52.599Z,95.89
2018-11-03T09:56:52.626Z,97.41
2018-11-03T09:57:52.655Z,98.84
2018-11-03T09:58:52.686Z,98.46
2018-11-03T09:59:52.715Z,97.60
2018-11-03T10:00:52.747Z,98.27
2018-11-03T10:01:52.777Z,97.99
2018-11-03T10:02:52.804Z,96.70
2018-11-03T10:03:52.833Z,96.08
2018-11-03T10:04:52.861Z,97.41
2018-11-03T10:05:52.893Z,97.36
2018-11-03T10:06:52.920Z,96.32
2018-11-03T10:07:52.952Z,94.46
2018-11-03T10:08:52.980Z,92.32
2018-11-03T10:09:53.009Z,90.26
2018-11-03T10:10:53.039Z,88.26
2018-11-03T10:11:53.069Z,89.26
2018-11-03T10:12:53.097Z,91.46
2018-11-03T10:13:53.128Z,91.98
2018-11-03T10:14:53.161Z,93.22
2018-11-03T10:15:53.302Z,94.70
2018-11-03T10:16:53.215Z,95.94
2018-11-03T10:17:53.246Z,95.94
2018-11-03T10:18:53.276Z,95.27
2018-11-03T10:19:53.305Z,96.51
2018-11-03T10:20:53.338Z,96.70
2018-11-03T10:21:53.363Z,96.32
2018-11-03T10:22:53.465Z,95.36
2018-11-03T10:23:53.446Z,95.56
2018-11-03T10:24:53.451Z,93.70
2018-11-03T10:25:53.481Z,93.03
2018-11-03T10:26:53.510Z,92.74
2018-11-03T10:27:53.540Z,91.55
2018-11-03T10:28:53.581Z,90.31
2018-11-03T10:29:53.598Z,90.79
2018-11-03T10:30:53.629Z,88.73
2018-11-03T10:31:53.659Z,86.44
2018-11-03T10:32:53.687Z,86.44
2018-11-03T10:33:53.734Z,87.06
2018-11-03T10:34:53.747Z,84.62
2018-11-03T10:35:53.775Z,83.23
2018-11-03T10:36:53.807Z,81.07
2018-11-03T10:37:53.835Z,81.03
2018-11-03T10:38:53.865Z,83.34
2018-11-03T10:39:53.901Z,85.97
2018-11-03T10:40:53.948Z,86.30
2018-11-03T10:41:53.956Z,84.76
2018-11-03T10:42:53.987Z,82.28
2018-11-03T10:43:54.018Z,81.79
2018-11-03T10:44:54.049Z,81.60
2018-11-03T10:45:54.079Z,81.60
2018-11-03T10:46:54.110Z,83.28
2018-11-03T10:47:54.142Z,83.42
2018-11-03T10:49:54.205Z,80.74
2018-11-03T10:50:54.231Z,80.88
2018-11-03T10:51:54.268Z,79.68
2018-11-03T10:52:54.295Z,78.97
2018-11-03T10:53:54.325Z,79.06
2018-11-03T10:54:54.358Z,79.12
2018-11-03T10:55:54.389Z,79.83
2018-11-03T10:56:54.433Z,78.72
2018-11-03T10:57:54.451Z,78.05
2018-11-03T10:58:54.482Z,78.49
2018-11-03T10:59:54.521Z,80.84
2018-11-03T11:00:54.545Z,81.03
2018-11-03T11:01:54.577Z,81.37
2018-11-03T11:02:54.611Z,82.71
2018-11-03T11:03:54.641Z,82.90
2018-11-03T11:04:54.673Z,82.31
2018-11-03T11:05:54.705Z,79.20
2018-11-03T11:06:54.736Z,76.62
2018-11-03T11:07:54.768Z,77.25
2018-11-03T11:08:54.798Z,77.87
2018-11-03T11:09:54.831Z,80.27
2018-11-03T11:10:54.863Z,81.56
2018-11-03T11:11:54.898Z,82.37
2018-11-03T11:12:54.928Z,81.03
2018-11-03T11:13:55.030Z,80.59
2018-11-03T11:14:54.992Z,79.44
2018-11-03T11:15:55.094Z,77.95
2018-11-03T11:16:55.125Z,77.38
2018-11-03T11:17:55.087Z,76.94
2018-11-03T11:18:55.119Z,76.90
2018-11-03T11:19:55.152Z,79.12
2018-11-03T11:20:55.183Z,80.11
2018-11-03T11:21:55.216Z,79.83
2018-11-03T11:22:55.250Z,79.16
2018-11-03T11:23:55.293Z,78.78
2018-11-03T11:24:55.442Z,78.14
2018-11-03T11:25:55.344Z,79.25
2018-11-03T11:26:55.377Z,78.97
2018-11-03T11:27:55.411Z,77.42
2018-11-03T11:28:55.444Z,75.83
2018-11-03T11:29:55.473Z,75.22
2018-11-03T11:30:55.504Z,75.70
2018-11-03T11:31:55.538Z,76.08
2018-11-03T11:32:55.571Z,76.37
2018-11-03T11:33:55.604Z,76.18
2018-11-03T11:34:55.634Z,76.81
2018-11-03T11:35:55.667Z,78.30
2018-11-03T11:36:55.699Z,79.98
2018-11-03T11:37:55.735Z,79.83
2018-11-03T11:38:55.764Z,78.63
2018-11-03T11:39:55.800Z,78.05
2018-11-03T11:40:55.829Z,76.84
2018-11-03T11:41:55.862Z,76.42
2018-11-03T11:42:55.922Z,75.79
2018-11-03T11:43:55.929Z,75.37
2018-11-03T11:44:55.959Z,76.23
2018-11-03T11:45:55.994Z,75.89
2018-11-03T11:46:56.027Z,74.93
2018-11-03T11:47:56.057Z,75.09
2018-11-03T11:48:56.090Z,76.04
2018-11-03T11:49:56.123Z,76.42
2018-11-03T11:50:56.155Z,76.71
2018-11-03T11:51:56.189Z,75.64
2018-11-03T11:52:56.220Z,73.76
2018-11-03T11:53:56.254Z,72.71
2018-11-03T11:54:56.339Z,71.11
2018-11-03T11:55:56.320Z,69.62
2018-11-03T11:56:56.352Z,68.37
2018-11-03T11:57:56.384Z,68.43
2018-11-03T12:03:05.680Z,70.03
2018-11-03T12:04:05.690Z,70.89
2018-11-03T12:05:05.722Z,69.58
2018-11-03T12:06:05.756Z,68.37
2018-11-03T12:07:05.789Z,69.35
2018-11-03T12:08:05.824Z,70.18
2018-11-03T12:09:05.857Z,71.37
2018-11-03T12:10:05.988Z,71.17
2018-11-03T12:11:05.923Z,71.17
2018-11-03T12:12:05.959Z,70.66
2018-11-03T12:13:05.990Z,71.97
2018-11-03T12:14:06.022Z,73.08
2018-11-03T12:15:06.057Z,73.59
2018-11-03T12:16:06.127Z,72.38
2018-11-03T12:17:06.123Z,71.81
2018-11-03T12:18:06.156Z,71.62
2018-11-03T12:19:06.191Z,70.60
2018-11-03T12:20:06.223Z,70.31
2018-11-03T12:21:06.255Z,70.60
2018-11-03T12:22:06.288Z,69.74
2018-11-03T12:23:06.323Z,69.20
2018-11-03T12:24:06.355Z,67.89
2018-11-03T12:25:06.388Z,67.41
2018-11-03T12:26:06.422Z,67.41
2018-11-03T12:27:06.454Z,67.32
2018-11-03T12:28:06.487Z,66.64
2018-11-03T12:29:06.521Z,66.10
2018-11-03T12:30:06.553Z,65.52
2018-11-03T12:31:06.588Z,65.43
2018-11-03T12:32:06.620Z,64.76
2018-11-03T12:33:06.654Z,65.49
2018-11-03T12:34:06.687Z,66.74
2018-11-03T12:35:06.721Z,66.10
2018-11-03T12:36:06.753Z,65.62
2018-11-03T12:37:06.787Z,65.68
2018-11-03T12:38:06.819Z,66.26
2018-11-03T12:39:06.852Z,66.35
2018-11-03T12:40:06.887Z,66.67
2018-11-03T12:41:06.981Z,67.82
2018-11-03T12:42:06.953Z,69.23
2018-11-03T12:43:06.986Z,69.86
2018-11-03T12:44:07.018Z,70.62
2018-11-03T12:45:07.051Z,71.55
2018-11-03T12:46:07.140Z,72.37
2018-11-03T12:47:07.118Z,74.04
2018-11-03T12:48:07.168Z,73.27
2018-11-03T12:49:07.183Z,73.27
2018-11-03T12:50:07.214Z,73.55
2018-11-03T12:51:07.246Z,72.98
2018-11-03T12:52:07.278Z,73.90
2018-11-03T12:53:07.310Z,73.80
2018-11-03T12:54:07.343Z,74.04
2018-11-03T12:55:07.379Z,73.08
2018-11-03T12:56:07.405Z,71.73
2018-11-03T12:57:07.437Z,72.69
2018-11-03T12:58:07.468Z,72.41
2018-11-03T12:59:07.606Z,72.31